createdAt,value
2022-11-27T00:01:48.802Z,102258.22
2022-11-27T00:04:19.572Z,102251.81
2022-11-27T00:06:50.036Z,102256.19
2022-11-27T00:09:20.291Z,102250.78
2022-11-27T00:11:50.932Z,102250.63
2022-11-27T00:14:24.300Z,102254.78
2022-11-27T00:16:54.626Z,102250.47
2022-11-27T00:19:28.001Z,102243.84
2022-11-27T00:21:58.891Z,102243.06
2022-11-27T00:24:28.905Z,102245.69
2022-11-27T00:26:59.705Z,102254.31
2022-11-27T00:29:32.837Z,102253.50
2022-11-27T00:32:03.445Z,102253.16
2022-11-27T00:34:34.166Z,102251.28
2022-11-27T00:37:04.673Z,102251.69
2022-11-27T00:39:34.982Z,102248.50
2022-11-27T00:42:05.449Z,102245.69
2022-11-27T00:44:38.510Z,102251.88
2022-11-27T00:47:08.959Z,102255.09
2022-11-27T00:49:39.105Z,102256.53
2022-11-27T00:52:09.437Z,102253.75
2022-11-27T00:54:40.129Z,102252.38
2022-11-27T00:57:10.660Z,102241.75
2022-11-27T00:59:43.278Z,102241.38
2022-11-27T01:02:14.191Z,102243.69
2022-11-27T01:04:44.272Z,102247.06
2022-11-27T01:07:14.799Z,102250.00
2022-11-27T01:09:45.098Z,102239.88
2022-11-27T01:12:15.597Z,102238.13
2022-11-27T01:14:48.370Z,102241.31
2022-11-27T01:17:18.770Z,102235.38
2022-11-27T01:19:48.652Z,102235.50
2022-11-27T01:22:19.014Z,102225.84
2022-11-27T01:24:49.038Z,102215.44
2022-11-27T01:27:19.311Z,102220.00
2022-11-27T01:29:51.845Z,102218.16
2022-11-27T01:32:22.086Z,102221.81
2022-11-27T01:34:54.356Z,102226.19
2022-11-27T01:37:24.844Z,102225.25
2022-11-27T01:39:54.978Z,102221.88
2022-11-27T01:42:25.400Z,102209.53
2022-11-27T01:44:59.021Z,102210.38
2022-11-27T01:47:35.517Z,102206.22
2022-11-27T01:50:14.283Z,102193.28
2022-11-27T01:52:50.519Z,102185.44
2022-11-27T01:55:26.341Z,102185.59
2022-11-27T01:58:02.402Z,102180.47
2022-11-27T02:00:35.945Z,102177.09
2022-11-27T02:03:06.457Z,102174.47
2022-11-27T02:05:36.714Z,102178.91
2022-11-27T02:08:10.550Z,102178.91
2022-11-27T02:10:49.397Z,102183.31
2022-11-27T02:13:25.991Z,102167.44
2022-11-27T02:16:06.124Z,102168.44
2022-11-27T02:18:45.315Z,102170.56
2022-11-27T02:21:22.493Z,102168.44
2022-11-27T02:24:03.899Z,102166.09
2022-11-27T02:26:52.951Z,102173.19
2022-11-27T02:29:29.446Z,102167.94
2022-11-27T02:32:04.321Z,102173.38
2022-11-27T02:34:40.915Z,102179.44
2022-11-27T02:37:15.826Z,102179.25
2022-11-27T02:39:52.952Z,102177.75
2022-11-27T02:42:24.308Z,102176.28
2022-11-27T02:45:03.362Z,102172.81
2022-11-27T02:47:34.698Z,102184.31
2022-11-27T02:50:06.473Z,102181.03
2022-11-27T02:52:36.559Z,102188.34
2022-11-27T02:55:14.472Z,102186.06
2022-11-27T02:57:46.183Z,102188.78
2022-11-27T03:00:20.552Z,102182.75
2022-11-27T03:02:56.925Z,102183.66
2022-11-27T03:05:31.333Z,102175.66
2022-11-27T03:08:07.563Z,102177.69
2022-11-27T03:10:44.985Z,102168.38
2022-11-27T03:13:15.008Z,102178.06
2022-11-27T03:15:59.982Z,102171.53
2022-11-27T03:18:39.554Z,102172.00
2022-11-27T03:21:22.227Z,102172.25
2022-11-27T03:23:52.378Z,102166.81
2022-11-27T03:26:22.726Z,102165.38
2022-11-27T03:28:54.240Z,102166.47
2022-11-27T03:31:28.211Z,102166.47
2022-11-27T03:33:58.373Z,102173.97
2022-11-27T03:36:28.976Z,102176.84
2022-11-27T03:38:59.170Z,102169.22
2022-11-27T03:41:41.863Z,102173.72
2022-11-27T03:44:25.233Z,102166.09
2022-11-27T03:47:09.612Z,102167.03
2022-11-27T03:49:55.225Z,102162.19
2022-11-27T03:52:31.997Z,102169.16
2022-11-27T03:55:09.541Z,102171.59
2022-11-27T03:57:45.745Z,102171.13
2022-11-27T04:00:16.945Z,102161.84
2022-11-27T04:02:53.077Z,102160.22
2022-11-27T04:05:23.493Z,102158.69
2022-11-27T04:07:53.824Z,102161.31
2022-11-27T04:10:24.157Z,102161.38
2022-11-27T04:12:54.514Z,102163.97
2022-11-27T04:15:24.570Z,102165.59
2022-11-27T04:17:57.431Z,102158.00
2022-11-27T04:20:27.429Z,102168.22
2022-11-27T04:22:58.012Z,102169.69
2022-11-27T04:25:27.949Z,102164.22
2022-11-27T04:27:58.296Z,102170.94
2022-11-27T04:30:28.229Z,102174.06
2022-11-27T04:33:01.180Z,102177.84
2022-11-27T04:35:31.175Z,102171.31
2022-11-27T04:38:02.424Z,102177.22
2022-11-27T04:40:32.297Z,102166.84
2022-11-27T04:43:02.628Z,102164.41
2022-11-27T04:45:32.539Z,102166.22
2022-11-27T04:48:05.625Z,102170.31
2022-11-27T04:50:35.738Z,102177.28
2022-11-27T04:53:06.012Z,102172.69
2022-11-27T04:55:36.099Z,102171.38
2022-11-27T04:58:06.382Z,102174.06
2022-11-27T05:00:36.439Z,102169.47
2022-11-27T05:03:09.435Z,102169.16
2022-11-27T05:05:39.458Z,102167.84
2022-11-27T05:08:09.769Z,102173.44
2022-11-27T05:10:39.728Z,102168.00
2022-11-27T05:13:10.030Z,102166.22
2022-11-27T05:15:40.054Z,102160.31
2022-11-27T05:18:12.927Z,102164.63
2022-11-27T05:20:42.870Z,102155.41
2022-11-27T05:23:13.197Z,102155.69
2022-11-27T05:25:43.358Z,102165.00
2022-11-27T05:28:13.701Z,102167.00
2022-11-27T05:30:43.677Z,102172.44
2022-11-27T05:33:16.631Z,102175.44
2022-11-27T05:35:47.355Z,102166.22
2022-11-27T05:38:17.660Z,102163.44
2022-11-27T05:40:47.621Z,102162.22
2022-11-27T05:43:17.880Z,102170.31
2022-11-27T05:45:47.878Z,102167.91
2022-11-27T05:48:20.819Z,102172.91
2022-11-27T05:50:50.990Z,102175.06
2022-11-27T05:53:21.300Z,102172.59
2022-11-27T05:55:51.276Z,102161.50
2022-11-27T05:58:21.818Z,102161.81
2022-11-27T06:00:51.761Z,102159.34
2022-11-27T06:03:25.271Z,102160.25
2022-11-27T06:05:55.740Z,102165.44
2022-11-27T06:08:26.882Z,102144.66
2022-11-27T06:10:56.806Z,102143.97
2022-11-27T06:13:27.149Z,102144.94
2022-11-27T06:15:57.448Z,102136.50
2022-11-27T06:18:30.362Z,102130.66
2022-11-27T06:21:00.297Z,102133.31
2022-11-27T06:23:30.633Z,102119.28
2022-11-27T06:26:00.604Z,102127.13
2022-11-27T06:28:30.927Z,102124.97
2022-11-27T06:31:00.847Z,102120.78
2022-11-27T06:33:33.726Z,102124.47
2022-11-27T06:36:03.719Z,102130.75
2022-11-27T06:38:34.985Z,102134.56
2022-11-27T06:41:06.338Z,102132.09
2022-11-27T06:43:37.182Z,102136.31
2022-11-27T06:46:08.655Z,102137.59
2022-11-27T06:48:41.538Z,102125.34
2022-11-27T06:51:14.331Z,102127.03
2022-11-27T06:53:45.318Z,102134.91
2022-11-27T06:56:17.291Z,102141.13
2022-11-27T06:58:48.542Z,102143.38
2022-11-27T07:01:20.195Z,102148.59
2022-11-27T07:03:53.185Z,102144.88
2022-11-27T07:06:26.844Z,102140.47
2022-11-27T07:08:58.167Z,102135.41
2022-11-27T07:11:30.077Z,102146.34
2022-11-27T07:14:01.900Z,102147.06
2022-11-27T07:16:34.519Z,102136.41
2022-11-27T07:19:09.590Z,102124.97
2022-11-27T07:21:40.708Z,102119.84
2022-11-27T07:24:11.447Z,102113.13
2022-11-27T07:26:41.850Z,102109.78
2022-11-27T07:29:12.163Z,102117.28
2022-11-27T07:31:42.154Z,102112.91
2022-11-27T07:34:21.224Z,102112.84
2022-11-27T07:36:51.742Z,102114.09
2022-11-27T07:39:34.100Z,102112.34
2022-11-27T07:42:37.042Z,102108.38
2022-11-27T07:45:02.197Z,102107.03
2022-11-27T07:47:32.875Z,102102.59
2022-11-27T07:50:07.334Z,102105.78
2022-11-27T07:52:41.455Z,102103.81
2022-11-27T07:55:13.330Z,102101.06
2022-11-27T07:57:43.266Z,102105.88
2022-11-27T08:00:14.583Z,102098.72
2022-11-27T08:02:44.489Z,102101.47
2022-11-27T08:05:17.789Z,102095.34
2022-11-27T08:07:48.051Z,102101.34
2022-11-27T08:10:18.719Z,102094.94
2022-11-27T08:12:48.956Z,102097.59
2022-11-27T08:15:19.688Z,102100.22
2022-11-27T08:17:49.688Z,102091.41
2022-11-27T08:20:23.010Z,102084.19
2022-11-27T08:23:02.314Z,102088.25
2022-11-27T08:25:34.379Z,102088.97
2022-11-27T08:28:04.326Z,102084.38
2022-11-27T08:30:34.769Z,102089.59
2022-11-27T08:33:04.755Z,102095.84
2022-11-27T08:35:38.067Z,102095.31
2022-11-27T08:38:10.404Z,102096.69
2022-11-27T08:40:42.390Z,102100.91
2022-11-27T08:43:16.478Z,102090.56
2022-11-27T08:45:51.853Z,102096.47
2022-11-27T08:48:23.885Z,102093.31
2022-11-27T08:51:04.515Z,102094.72
2022-11-27T08:53:37.527Z,102095.19
2022-11-27T08:56:09.422Z,102097.72
2022-11-27T08:58:41.120Z,102097.25
2022-11-27T09:01:13.618Z,102097.63
2022-11-27T09:03:44.367Z,102094.78
2022-11-27T09:06:21.384Z,102094.50
2022-11-27T09:08:52.038Z,102091.31
2022-11-27T09:11:23.687Z,102100.25
2022-11-27T09:13:55.211Z,102095.81
2022-11-27T09:16:27.072Z,102095.88
2022-11-27T09:18:58.202Z,102087.78
2022-11-27T09:21:34.591Z,102096.34
2022-11-27T09:24:07.447Z,102087.66
2022-11-27T09:26:38.645Z,102085.94
2022-11-27T09:29:09.282Z,102081.13
2022-11-27T09:31:40.097Z,102075.03
2022-11-27T09:34:11.351Z,102073.59
2022-11-27T09:36:46.419Z,102073.34
2022-11-27T09:39:16.995Z,102069.66
2022-11-27T09:41:49.999Z,102064.25
2022-11-27T09:44:28.011Z,102068.22
2022-11-27T09:47:02.695Z,102064.31
2022-11-27T09:49:39.276Z,102058.97
2022-11-27T09:52:18.500Z,102048.31
2022-11-27T09:54:56.086Z,102055.84
2022-11-27T09:57:32.616Z,102051.69
2022-11-27T10:00:07.758Z,102046.00
2022-11-27T10:02:38.397Z,102047.03
2022-11-27T10:05:18.237Z,102038.16
2022-11-27T10:08:07.305Z,102036.19
2022-11-27T10:10:44.820Z,102042.59
2022-11-27T10:13:32.289Z,102038.81
2022-11-27T10:16:13.080Z,102042.53
2022-11-27T10:18:48.538Z,102044.97
2022-11-27T10:21:25.761Z,102044.66
2022-11-27T10:24:08.321Z,102046.50
2022-11-27T10:26:43.093Z,102042.22
2022-11-27T10:29:25.610Z,102038.69
2022-11-27T10:32:00.027Z,102039.25
2022-11-27T10:34:39.778Z,102029.63
2022-11-27T10:37:16.970Z,102027.41
2022-11-27T10:39:56.421Z,102019.72
2022-11-27T10:42:37.428Z,102021.63
2022-11-27T10:45:15.685Z,102021.44
2022-11-27T10:47:49.172Z,102023.44
2022-11-27T10:50:21.511Z,102018.56
2022-11-27T10:52:56.789Z,102011.81
2022-11-27T10:56:11.106Z,102018.78
2022-11-27T10:59:16.998Z,102016.09
2022-11-27T11:02:00.109Z,102009.13
2022-11-27T11:04:54.548Z,102007.91
2022-11-27T11:07:28.908Z,101997.97
2022-11-27T11:10:02.481Z,102003.72
2022-11-27T11:12:57.826Z,101999.09
2022-11-27T11:15:53.726Z,101989.69
2022-11-27T11:18:25.990Z,101991.94
2022-11-27T11:20:58.343Z,101991.13
2022-11-27T11:23:33.504Z,102005.75
2022-11-27T11:26:07.944Z,102013.19
2022-11-27T11:28:49.556Z,102010.31
2022-11-27T11:31:25.801Z,101995.97
2022-11-27T11:34:01.945Z,101995.72
2022-11-27T11:36:32.822Z,101990.97
2022-11-27T11:39:03.220Z,101994.50
2022-11-27T11:41:40.166Z,101985.56
2022-11-27T11:44:27.198Z,101981.88
2022-11-27T11:46:59.879Z,101983.75
2022-11-27T11:49:32.262Z,101987.13
2022-11-27T11:52:21.076Z,101978.13
2022-11-27T11:55:01.062Z,101987.00
2022-11-27T11:57:58.207Z,101982.81
2022-11-27T12:01:04.853Z,101983.72
2022-11-27T12:09:22.350Z,101968.94
2022-11-27T12:13:23.469Z,101958.06
2022-11-27T12:17:45.856Z,101957.84
2022-11-27T12:25:18.954Z,101956.13
2022-11-27T12:28:09.206Z,101940.41
2022-11-27T12:31:10.149Z,101933.53
2022-11-27T12:35:18.174Z,101919.97
2022-11-27T12:38:25.739Z,101917.03
2022-11-27T12:41:12.832Z,101915.97
2022-11-27T12:43:48.433Z,101905.91
2022-11-27T12:46:25.554Z,101904.81
2022-11-27T12:49:09.907Z,101896.75
2022-11-27T12:51:48.207Z,101895.81
2022-11-27T12:54:55.735Z,101888.59
2022-11-27T12:57:39.675Z,101874.75
2022-11-27T13:00:20.491Z,101883.00
2022-11-27T13:03:13.909Z,101876.88
2022-11-27T13:05:55.261Z,101875.94
2022-11-27T13:08:35.013Z,101881.22
2022-11-27T13:11:13.863Z,101878.06
2022-11-27T13:13:51.544Z,101877.16
2022-11-27T13:16:39.716Z,101872.56
2022-11-27T13:19:38.486Z,101866.56
2022-11-27T13:22:29.217Z,101856.00
2022-11-27T13:25:08.389Z,101862.16
2022-11-27T13:27:42.432Z,101862.06
2022-11-27T13:30:27.405Z,101851.91
2022-11-27T13:33:09.097Z,101840.31
2022-11-27T13:35:55.111Z,101830.22
2022-11-27T13:39:13.329Z,101832.88
2022-11-27T13:41:46.606Z,101838.31
2022-11-27T13:44:27.033Z,101835.31
2022-11-27T13:47:07.228Z,101830.84
2022-11-27T13:49:38.953Z,101829.06
2022-11-27T13:52:14.386Z,101819.56
2022-11-27T13:54:55.701Z,101810.59
2022-11-27T13:57:27.466Z,101805.50
2022-11-27T13:59:59.816Z,101798.97
2022-11-27T14:02:43.215Z,101804.50
2022-11-27T14:05:14.050Z,101804.13
2022-11-27T14:07:47.805Z,101806.91
2022-11-27T14:10:21.271Z,101805.31
2022-11-27T14:12:56.883Z,101805.66
2022-11-27T14:15:29.594Z,101805.34
2022-11-27T14:18:19.045Z,101794.41
2022-11-27T14:20:51.649Z,101797.41
2022-11-27T14:23:31.006Z,101806.31
2022-11-27T14:26:09.537Z,101801.38
2022-11-27T14:28:45.112Z,101798.75
2022-11-27T14:31:25.839Z,101805.75
2022-11-27T14:34:23.119Z,101797.34
2022-11-27T14:36:54.619Z,101784.41
2022-11-27T14:39:30.627Z,101787.16
2022-11-27T14:42:05.970Z,101795.72
2022-11-27T14:44:38.507Z,101797.06
2022-11-27T14:47:10.136Z,101800.66
2022-11-27T14:49:43.710Z,101794.09
2022-11-27T14:52:19.277Z,101793.06
2022-11-27T14:54:51.387Z,101794.91
2022-11-27T14:57:27.070Z,101799.16
2022-11-27T15:00:16.770Z,101796.66
2022-11-27T15:02:47.903Z,101795.53
2022-11-27T15:05:27.577Z,101793.16
2022-11-27T15:08:00.361Z,101788.69
2022-11-27T15:10:35.571Z,101775.03
2022-11-27T15:13:08.043Z,101768.31
2022-11-27T15:15:42.613Z,101765.72
2022-11-27T15:18:23.605Z,101765.56
2022-11-27T15:20:57.383Z,101769.03
2022-11-27T15:23:30.070Z,101765.84
2022-11-27T15:26:17.804Z,101771.69
2022-11-27T15:28:57.201Z,101763.63
2022-11-27T15:31:32.898Z,101757.56
2022-11-27T15:34:06.170Z,101759.78
2022-11-27T15:36:44.227Z,101752.03
2022-11-27T15:39:22.037Z,101750.25
2022-11-27T15:41:58.285Z,101743.13
2022-11-27T15:44:30.451Z,101743.22
2022-11-27T15:47:03.448Z,101745.00
2022-11-27T15:49:34.008Z,101743.09
2022-11-27T15:52:07.258Z,101742.38
2022-11-27T15:54:37.186Z,101746.81
2022-11-27T15:57:07.669Z,101737.03
2022-11-27T15:59:37.614Z,101738.53
2022-11-27T16:02:11.044Z,101731.53
2022-11-27T16:04:47.634Z,101730.78
2022-11-27T16:07:20.648Z,101723.50
2022-11-27T16:09:50.657Z,101733.66
2022-11-27T16:12:21.011Z,101720.53
2022-11-27T16:14:51.012Z,101723.53
2022-11-27T16:17:21.795Z,101718.69
2022-11-27T16:19:51.781Z,101714.56
2022-11-27T16:22:24.909Z,101710.53
2022-11-27T16:24:54.838Z,101715.44
2022-11-27T16:27:25.143Z,101713.22
2022-11-27T16:29:55.117Z,101707.63
2022-11-27T16:32:25.591Z,101702.47
2022-11-27T16:34:55.572Z,101710.16
2022-11-27T16:37:28.494Z,101704.31
2022-11-27T16:39:58.505Z,101703.56
2022-11-27T16:42:29.016Z,101703.34
2022-11-27T16:44:59.269Z,101699.59
2022-11-27T16:47:33.588Z,101689.41
2022-11-27T16:50:04.325Z,101683.97
2022-11-27T16:52:37.843Z,101680.38
2022-11-27T16:55:09.621Z,101683.25
2022-11-27T16:57:40.313Z,101686.50
2022-11-27T17:00:11.575Z,101688.19
2022-11-27T17:02:42.436Z,101684.28
2022-11-27T17:05:13.009Z,101684.72
2022-11-27T17:07:46.658Z,101683.47
2022-11-27T17:10:17.179Z,101685.47
2022-11-27T17:12:47.582Z,101678.53
2022-11-27T17:15:17.525Z,101675.16
2022-11-27T17:17:48.092Z,101678.97
2022-11-27T17:20:18.198Z,101670.78
2022-11-27T17:22:51.154Z,101668.16
2022-11-27T17:25:21.117Z,101669.50
2022-11-27T17:27:52.239Z,101661.53
2022-11-27T17:30:22.942Z,101662.69
2022-11-27T17:32:56.091Z,101652.41
2022-11-27T17:35:26.075Z,101651.97
2022-11-27T17:37:59.046Z,101654.09
2022-11-27T17:40:30.626Z,101652.06
2022-11-27T17:43:00.974Z,101646.72
2022-11-27T17:45:31.206Z,101637.91
2022-11-27T17:48:01.966Z,101628.66
2022-11-27T17:50:32.122Z,101631.19
2022-11-27T17:53:04.979Z,101619.84
2022-11-27T17:55:35.871Z,101625.94
2022-11-27T17:58:06.355Z,101623.22
2022-11-27T18:00:36.793Z,101614.47
2022-11-27T18:03:07.735Z,101611.94
2022-11-27T18:05:39.295Z,101607.66
2022-11-27T18:08:12.324Z,101606.31
2022-11-27T18:10:42.420Z,101600.50
2022-11-27T18:13:12.835Z,101598.50
2022-11-27T18:15:44.087Z,101584.88
2022-11-27T18:18:14.554Z,101586.66
2022-11-27T18:20:44.679Z,101578.91
2022-11-27T18:23:17.833Z,101577.31
2022-11-27T18:25:49.190Z,101574.69
2022-11-27T18:28:20.255Z,101578.69
2022-11-27T18:30:50.252Z,101580.25
2022-11-27T18:33:20.535Z,101576.72
2022-11-27T18:35:50.499Z,101572.47
2022-11-27T18:38:23.467Z,101573.63
2022-11-27T18:40:53.425Z,101572.75
2022-11-27T18:43:23.733Z,101568.78
2022-11-27T18:45:53.780Z,101571.44
2022-11-27T18:48:24.092Z,101571.09
2022-11-27T18:50:54.249Z,101576.97
2022-11-27T18:53:27.314Z,101587.66
2022-11-27T18:56:03.416Z,101585.44
2022-11-27T18:58:35.157Z,101588.34
2022-11-27T19:01:06.427Z,101589.44
2022-11-27T19:03:42.666Z,101581.69
2022-11-27T19:06:15.190Z,101578.72
2022-11-27T19:08:49.023Z,101575.66
2022-11-27T19:11:21.808Z,101581.41
2022-11-27T19:13:54.169Z,101577.94
2022-11-27T19:16:28.018Z,101576.06
2022-11-27T19:18:59.862Z,101572.13
2022-11-27T19:21:32.367Z,101573.47
2022-11-27T19:24:06.688Z,101572.31
2022-11-27T19:26:38.899Z,101565.69
2022-11-27T19:29:11.410Z,101565.09
2022-11-27T19:31:42.540Z,101563.78
2022-11-27T19:34:14.914Z,101559.97
2022-11-27T19:36:44.859Z,101552.31
2022-11-27T19:39:18.598Z,101553.16
2022-11-27T19:41:48.665Z,101551.44
2022-11-27T19:44:19.333Z,101541.44
2022-11-27T19:46:49.470Z,101536.06
2022-11-27T19:49:21.427Z,101542.31
2022-11-27T19:51:51.385Z,101539.03
2022-11-27T19:54:24.533Z,101539.44
2022-11-27T19:56:54.489Z,101538.50
2022-11-27T19:59:27.697Z,101538.97
2022-11-27T20:01:58.030Z,101536.13
2022-11-27T20:04:28.436Z,101531.63
2022-11-27T20:06:58.490Z,101533.50
2022-11-27T20:09:31.379Z,101537.22
2022-11-27T20:12:02.275Z,101527.69
2022-11-27T20:14:32.560Z,101534.78
2022-11-27T20:17:02.549Z,101534.91
2022-11-27T20:19:32.830Z,101528.34
2022-11-27T20:22:03.035Z,101530.81
2022-11-27T20:24:44.087Z,101529.47
2022-11-27T20:27:25.801Z,101523.69
2022-11-27T20:29:59.996Z,101528.34
2022-11-27T20:32:30.023Z,101534.91
2022-11-27T20:35:00.303Z,101528.19
2022-11-27T20:37:30.760Z,101525.75
2022-11-27T20:40:03.738Z,101531.81
2022-11-27T20:42:33.689Z,101537.63
2022-11-27T20:45:05.183Z,101540.31
2022-11-27T20:47:35.234Z,101534.16
2022-11-27T20:50:05.479Z,101542.88
2022-11-27T20:52:35.537Z,101543.81
2022-11-27T20:55:09.710Z,101541.19
2022-11-27T20:57:39.661Z,101526.88
2022-11-27T21:00:12.002Z,101525.75
2022-11-27T21:02:43.344Z,101518.66
2022-11-27T21:05:13.704Z,101520.91
2022-11-27T21:07:45.085Z,101511.28
2022-11-27T21:10:20.147Z,101509.59
2022-11-27T21:12:50.653Z,101502.22
2022-11-27T21:15:21.459Z,101484.38
2022-11-27T21:17:51.386Z,101472.44
2022-11-27T21:20:21.868Z,101477.75
2022-11-27T21:22:51.819Z,101471.16
2022-11-27T21:25:25.719Z,101474.50
2022-11-27T21:27:58.069Z,101472.09
2022-11-27T21:30:28.946Z,101476.91
2022-11-27T21:32:59.500Z,101465.81
2022-11-27T21:35:32.750Z,101458.06
2022-11-27T21:38:05.121Z,101455.75
2022-11-27T21:40:39.471Z,101468.03
2022-11-27T21:43:09.673Z,101465.44
2022-11-27T21:45:40.353Z,101452.19
2022-11-27T21:48:14.370Z,101443.78
2022-11-27T21:50:45.273Z,101435.66
2022-11-27T21:53:15.591Z,101441.28
2022-11-27T21:55:49.392Z,101441.28
2022-11-27T21:58:19.301Z,101437.81
2022-11-27T22:00:52.236Z,101439.28
2022-11-27T22:03:22.163Z,101450.13
2022-11-27T22:06:01.573Z,101450.69
2022-11-27T22:08:31.831Z,101442.09
2022-11-27T22:11:07.853Z,101446.13
2022-11-27T22:13:38.910Z,101449.19
2022-11-27T22:16:12.214Z,101453.19
2022-11-27T22:18:42.456Z,101450.69
2022-11-27T22:21:14.240Z,101448.16
2022-11-27T22:23:45.197Z,101439.13
2022-11-27T22:26:20.143Z,101445.66
2022-11-27T22:28:51.101Z,101446.97
2022-11-27T22:31:24.492Z,101446.31
2022-11-27T22:33:54.844Z,101443.78
2022-11-27T22:36:27.432Z,101436.59
2022-11-27T22:38:58.200Z,101438.56
2022-11-27T22:41:32.863Z,101445.47
2022-11-27T22:44:03.207Z,101441.53
2022-11-27T22:46:36.887Z,101438.00
2022-11-27T22:49:08.815Z,101439.69
2022-11-27T22:51:41.927Z,101433.59
2022-11-27T22:54:16.903Z,101432.13
2022-11-27T22:56:50.044Z,101434.06
2022-11-27T22:59:35.300Z,101434.34
2022-11-27T23:02:06.364Z,101419.69
2022-11-27T23:04:37.246Z,101427.44
2022-11-27T23:07:08.646Z,101427.53
2022-11-27T23:09:38.877Z,101429.13
2022-11-27T23:12:11.889Z,101416.63
2022-11-27T23:14:42.278Z,101423.72
2022-11-27T23:17:12.842Z,101417.00
2022-11-27T23:19:42.830Z,101409.63
2022-11-27T23:22:13.257Z,101407.38
2022-11-27T23:24:43.705Z,101400.66
2022-11-27T23:27:16.764Z,101401.41
2022-11-27T23:29:46.710Z,101405.88
2022-11-27T23:32:17.117Z,101406.34
2022-11-27T23:34:47.107Z,101395.25
2022-11-27T23:37:17.494Z,101400.47
2022-11-27T23:39:47.490Z,101390.59
2022-11-27T23:42:20.585Z,101392.94
2022-11-27T23:44:50.664Z,101380.13
2022-11-27T23:47:21.086Z,101380.03
2022-11-27T23:49:51.470Z,101384.06
2022-11-27T23:52:22.038Z,101386.38
2022-11-27T23:54:52.206Z,101383.38
2022-11-27T23:57:25.356Z,101376.41
2022-11-27T23:59:55.657Z,101388.28
